createdAt,value
2023-03-15T15:24:43.678Z,23.39
2023-03-15T15:28:43.640Z,23.31
2023-03-15T15:32:43.736Z,23.16
2023-03-15T15:36:43.549Z,23.03
2023-03-15T15:40:43.544Z,22.93
2023-03-15T15:44:44.020Z,22.85
2023-03-15T15:48:43.458Z,22.80
2023-03-15T15:52:43.456Z,22.81
2023-03-15T15:56:43.399Z,22.87
2023-03-15T16:00:43.477Z,22.85
2023-03-15T16:04:43.408Z,22.84
2023-03-15T16:08:43.929Z,22.80
2023-03-15T16:12:43.389Z,22.76
2023-03-15T16:16:43.280Z,22.71
2023-03-15T16:20:43.928Z,22.67
2023-03-15T16:24:43.410Z,22.67
2023-03-15T16:28:43.487Z,22.67
2023-03-15T16:32:44.945Z,22.61
2023-03-15T16:36:43.954Z,22.54
2023-03-15T16:40:43.888Z,22.50
2023-03-15T16:44:43.916Z,22.51
2023-03-15T16:48:44.178Z,22.49
2023-03-15T16:52:44.178Z,22.50
2023-03-15T16:56:44.337Z,22.44
2023-03-15T17:00:44.491Z,22.45
2023-03-15T17:04:44.640Z,22.38
2023-03-15T17:08:44.696Z,22.35
2023-03-15T17:12:44.991Z,22.31
2023-03-15T17:16:45.098Z,22.30
2023-03-15T17:20:45.548Z,22.28
2023-03-15T17:24:45.253Z,22.25
2023-03-15T17:28:45.332Z,22.24
2023-03-15T17:32:45.538Z,22.23
2023-03-15T17:36:45.693Z,22.25
2023-03-15T17:40:45.812Z,22.21
2023-03-15T17:44:45.994Z,22.20
2023-03-15T17:48:46.217Z,22.17
2023-03-15T17:52:46.348Z,22.14
2023-03-15T17:56:46.629Z,22.13
2023-03-15T18:00:46.763Z,22.10
2023-03-15T18:04:46.917Z,22.09
2023-03-15T18:08:47.160Z,22.08
2023-03-15T18:12:47.333Z,22.06
2023-03-15T18:16:47.691Z,22.04
2023-03-15T18:20:47.801Z,22.02
2023-03-15T18:24:47.861Z,22.01
2023-03-15T18:28:47.727Z,21.98
2023-03-15T18:32:47.784Z,21.97
2023-03-15T18:36:47.617Z,21.96
2023-03-15T18:40:47.583Z,21.95
2023-03-15T18:44:47.513Z,21.93
2023-03-15T18:48:47.486Z,21.90
2023-03-15T18:52:47.475Z,21.89
2023-03-15T18:56:47.416Z,21.87
2023-03-15T19:00:47.571Z,21.85
2023-03-15T19:04:47.808Z,21.85
2023-03-15T19:08:47.755Z,21.84
2023-03-15T19:12:47.705Z,21.82
2023-03-15T19:16:47.808Z,21.82
2023-03-15T19:20:48.470Z,21.82
2023-03-15T19:24:47.595Z,21.80
2023-03-15T19:28:47.536Z,21.79
2023-03-15T19:32:47.651Z,21.78
2023-03-15T19:36:47.507Z,21.75
2023-03-15T19:40:47.433Z,21.78
2023-03-15T19:44:47.450Z,21.77
2023-03-15T19:48:47.352Z,21.75
2023-03-15T19:52:47.397Z,21.75
2023-03-15T19:56:47.530Z,21.74
2023-03-15T20:00:47.726Z,21.74
2023-03-15T20:04:47.847Z,21.75
2023-03-15T20:08:47.961Z,21.74
2023-03-15T20:12:48.108Z,21.71
2023-03-15T20:16:48.259Z,21.71
2023-03-15T20:20:48.455Z,21.69
2023-03-15T20:24:48.486Z,21.68
2023-03-15T20:28:48.398Z,21.68
2023-03-15T20:32:48.344Z,21.67
2023-03-15T20:36:48.349Z,21.67
2023-03-15T20:40:48.234Z,21.67
2023-03-15T20:44:48.245Z,21.66
2023-03-15T20:48:48.198Z,21.66
2023-03-15T20:52:48.139Z,21.65
2023-03-15T20:56:48.096Z,21.63
2023-03-15T21:00:48.404Z,21.63
2023-03-15T21:04:48.479Z,21.62
2023-03-15T21:08:48.682Z,21.61
2023-03-15T21:12:48.853Z,21.60
2023-03-15T21:16:48.909Z,21.60
2023-03-15T21:20:48.784Z,21.59
2023-03-15T21:24:55.474Z,21.58
2023-03-15T21:28:49.724Z,21.57
2023-03-15T21:32:48.698Z,21.58
2023-03-15T21:36:48.831Z,21.57
2023-03-15T21:40:48.947Z,21.56
2023-03-15T21:44:48.959Z,21.56
2023-03-15T21:48:48.873Z,21.55
2023-03-15T21:52:48.924Z,21.54
2023-03-15T21:56:48.892Z,21.54
2023-03-15T22:00:48.882Z,21.52
2023-03-15T22:04:49.138Z,21.52
2023-03-15T22:08:48.822Z,21.51
2023-03-15T22:12:48.824Z,21.50
2023-03-15T22:16:48.943Z,21.49
2023-03-15T22:20:48.864Z,21.49
2023-03-15T22:24:48.934Z,21.49
2023-03-15T22:28:48.978Z,21.48
2023-03-15T22:32:48.971Z,21.47
2023-03-15T22:36:48.937Z,21.46
2023-03-15T22:40:48.927Z,21.44
2023-03-15T22:44:48.987Z,21.43
2023-03-15T22:48:49.001Z,21.43
2023-03-15T22:52:49.021Z,21.42
2023-03-15T22:56:49.094Z,21.41
2023-03-15T23:00:49.174Z,21.41
2023-03-15T23:04:49.221Z,21.39
2023-03-15T23:08:50.073Z,21.38
2023-03-15T23:12:49.207Z,21.37
2023-03-15T23:16:49.283Z,21.37
2023-03-15T23:20:49.451Z,21.36
2023-03-15T23:24:50.056Z,21.36
2023-03-15T23:28:49.488Z,21.34
2023-03-15T23:32:49.522Z,21.33
2023-03-15T23:36:49.536Z,21.32
2023-03-15T23:40:49.670Z,21.29
2023-03-15T23:44:49.744Z,21.30
2023-03-15T23:48:49.866Z,21.29
2023-03-15T23:52:49.895Z,21.27
